Terminal Aerodrome Forecast
Issued by NWS

Home | Current Version | Previous Version | Text Only | Print | Product List | Glossary On
Versions: 1 2 3 4 5 6 7 8 9 10 11 12 13 14 15 16 17 18
000
FTUS43 KIWX 101724
TAFSBN
TAF
KSBN 101724Z 1018/1118 25010KT P6SM OVC035
      TEMPO 1018/1021 4SM -SN OVC025
     FM110100 20005KT P6SM VCSH OVC025
     FM110300 19005KT 2SM -SN OVC015
     FM111200 15009KT 1SM -SN OVC010=

USA.gov is the U.S. government's official web portal to all federal, state and local government web resources and services.